sensor_id;sensor_type;location;lat;lon;timestamp;P1;durP1;ratioP1;P2;durP2;ratioP2
77524;SDS011;66638;50.050;21.124;2023-03-25T00:00:02;10.50;;;8.00;;
77524;SDS011;66638;50.050;21.124;2023-03-25T00:03:20;13.60;;;9.60;;
77524;SDS011;66638;50.050;21.124;2023-03-25T00:06:08;12.10;;;8.50;;
77524;SDS011;66638;50.050;21.124;2023-03-25T00:08:56;13.90;;;9.70;;
77524;SDS011;66638;50.050;21.124;2023-03-25T00:11:42;13.00;;;9.20;;
77524;SDS011;66638;50.050;21.124;2023-03-25T00:14:27;12.50;;;10.00;;
77524;SDS011;66638;50.050;21.124;2023-03-25T00:17:13;10.60;;;8.80;;
77524;SDS011;66638;50.050;21.124;2023-03-25T00:20:02;12.70;;;8.80;;
77524;SDS011;66638;50.050;21.124;2023-03-25T00:22:55;14.10;;;9.80;;
77524;SDS011;66638;50.050;21.124;2023-03-25T00:25:41;12.80;;;8.80;;
77524;SDS011;66638;50.050;21.124;2023-03-25T00:28:30;13.00;;;9.50;;
77524;SDS011;66638;50.050;21.124;2023-03-25T00:31:18;13.60;;;8.90;;
77524;SDS011;66638;50.050;21.124;2023-03-25T00:34:04;10.70;;;8.60;;
77524;SDS011;66638;50.050;21.124;2023-03-25T00:36:50;11.90;;;9.50;;
77524;SDS011;66638;50.050;21.124;2023-03-25T00:39:36;13.90;;;9.50;;
77524;SDS011;66638;50.050;21.124;2023-03-25T00:45:11;12.20;;;9.10;;
77524;SDS011;66638;50.050;21.124;2023-03-25T00:47:57;16.10;;;9.60;;
77524;SDS011;66638;50.050;21.124;2023-03-25T00:50:43;12.50;;;9.50;;
77524;SDS011;66638;50.050;21.124;2023-03-25T00:53:28;12.50;;;9.00;;
77524;SDS011;66638;50.050;21.124;2023-03-25T00:56:15;13.20;;;9.40;;
77524;SDS011;66638;50.050;21.124;2023-03-25T00:59:01;12.00;;;8.90;;
77524;SDS011;66638;50.050;21.124;2023-03-25T01:01:47;12.00;;;8.50;;
77524;SDS011;66638;50.050;21.124;2023-03-25T01:04:33;13.10;;;8.60;;
77524;SDS011;66638;50.050;21.124;2023-03-25T01:07:22;12.40;;;9.20;;
77524;SDS011;66638;50.050;21.124;2023-03-25T01:10:08;14.40;;;8.80;;
77524;SDS011;66638;50.050;21.124;2023-03-25T01:12:55;12.00;;;8.00;;
77524;SDS011;66638;50.050;21.124;2023-03-25T01:15:42;10.70;;;7.20;;
77524;SDS011;66638;50.050;21.124;2023-03-25T01:18:27;11.10;;;8.60;;
77524;SDS011;66638;50.050;21.124;2023-03-25T01:21:13;10.80;;;8.30;;
77524;SDS011;66638;50.050;21.124;2023-03-25T01:23:59;9.80;;;7.40;;
77524;SDS011;66638;50.050;21.124;2023-03-25T01:26:45;10.40;;;7.30;;
77524;SDS011;66638;50.050;21.124;2023-03-25T01:29:31;12.40;;;8.50;;
77524;SDS011;66638;50.050;21.124;2023-03-25T01:32:17;13.90;;;9.10;;
77524;SDS011;66638;50.050;21.124;2023-03-25T01:35:03;11.30;;;8.00;;
77524;SDS011;66638;50.050;21.124;2023-03-25T01:37:50;10.00;;;7.00;;
77524;SDS011;66638;50.050;21.124;2023-03-25T01:40:38;10.20;;;7.60;;
77524;SDS011;66638;50.050;21.124;2023-03-25T01:43:24;10.80;;;7.40;;
77524;SDS011;66638;50.050;21.124;2023-03-25T01:46:10;11.30;;;8.10;;
77524;SDS011;66638;50.050;21.124;2023-03-25T01:49:02;11.90;;;8.50;;
77524;SDS011;66638;50.050;21.124;2023-03-25T01:51:52;11.40;;;8.00;;
77524;SDS011;66638;50.050;21.124;2023-03-25T01:54:40;10.40;;;7.40;;
77524;SDS011;66638;50.050;21.124;2023-03-25T01:57:27;9.30;;;7.10;;
77524;SDS011;66638;50.050;21.124;2023-03-25T02:00:15;8.90;;;7.30;;
77524;SDS011;66638;50.050;21.124;2023-03-25T02:03:05;8.60;;;6.80;;
77524;SDS011;66638;50.050;21.124;2023-03-25T02:06:00;9.80;;;7.60;;
77524;SDS011;66638;50.050;21.124;2023-03-25T02:08:48;10.50;;;7.30;;
77524;SDS011;66638;50.050;21.124;2023-03-25T02:11:34;8.70;;;7.20;;
77524;SDS011;66638;50.050;21.124;2023-03-25T02:14:21;9.30;;;7.50;;
77524;SDS011;66638;50.050;21.124;2023-03-25T02:20:34;9.90;;;7.60;;
77524;SDS011;66638;50.050;21.124;2023-03-25T02:23:33;9.20;;;7.40;;
77524;SDS011;66638;50.050;21.124;2023-03-25T02:29:56;9.00;;;7.50;;
77524;SDS011;66638;50.050;21.124;2023-03-25T02:39:40;9.50;;;6.30;;
77524;SDS011;66638;50.050;21.124;2023-03-25T02:42:31;8.80;;;6.40;;
77524;SDS011;66638;50.050;21.124;2023-03-25T02:45:28;9.30;;;6.60;;
77524;SDS011;66638;50.050;21.124;2023-03-25T02:48:18;9.10;;;6.90;;
77524;SDS011;66638;50.050;21.124;2023-03-25T02:51:25;10.10;;;6.30;;
77524;SDS011;66638;50.050;21.124;2023-03-25T02:54:15;7.90;;;6.70;;
77524;SDS011;66638;50.050;21.124;2023-03-25T02:57:01;8.70;;;7.10;;
77524;SDS011;66638;50.050;21.124;2023-03-25T02:59:49;11.10;;;7.10;;
77524;SDS011;66638;50.050;21.124;2023-03-25T03:02:38;9.80;;;7.60;;
77524;SDS011;66638;50.050;21.124;2023-03-25T03:05:26;10.20;;;7.10;;
77524;SDS011;66638;50.050;21.124;2023-03-25T03:08:29;9.40;;;6.40;;
77524;SDS011;66638;50.050;21.124;2023-03-25T03:17:43;10.80;;;7.70;;
77524;SDS011;66638;50.050;21.124;2023-03-25T03:27:12;10.30;;;8.20;;
77524;SDS011;66638;50.050;21.124;2023-03-25T03:30:10;12.60;;;10.40;;
77524;SDS011;66638;50.050;21.124;2023-03-25T03:33:07;12.90;;;9.10;;
77524;SDS011;66638;50.050;21.124;2023-03-25T03:36:01;11.90;;;9.00;;
77524;SDS011;66638;50.050;21.124;2023-03-25T03:38:58;12.00;;;8.80;;
77524;SDS011;66638;50.050;21.124;2023-03-25T03:41:52;12.70;;;8.70;;
77524;SDS011;66638;50.050;21.124;2023-03-25T03:44:42;13.00;;;9.00;;
77524;SDS011;66638;50.050;21.124;2023-03-25T03:47:32;11.80;;;8.90;;
77524;SDS011;66638;50.050;21.124;2023-03-25T03:50:25;11.80;;;8.30;;
77524;SDS011;66638;50.050;21.124;2023-03-25T03:53:14;10.20;;;7.40;;
77524;SDS011;66638;50.050;21.124;2023-03-25T03:56:10;11.60;;;7.80;;
77524;SDS011;66638;50.050;21.124;2023-03-25T03:58:58;10.80;;;7.50;;
77524;SDS011;66638;50.050;21.124;2023-03-25T04:01:46;12.60;;;6.90;;
77524;SDS011;66638;50.050;21.124;2023-03-25T04:04:38;9.20;;;6.60;;
77524;SDS011;66638;50.050;21.124;2023-03-25T04:07:31;9.00;;;6.40;;
77524;SDS011;66638;50.050;21.124;2023-03-25T04:13:50;8.20;;;6.50;;
77524;SDS011;66638;50.050;21.124;2023-03-25T04:16:37;9.00;;;6.60;;
77524;SDS011;66638;50.050;21.124;2023-03-25T04:19:24;9.30;;;7.30;;
77524;SDS011;66638;50.050;21.124;2023-03-25T04:22:10;9.80;;;7.00;;
77524;SDS011;66638;50.050;21.124;2023-03-25T04:24:58;10.10;;;6.90;;
77524;SDS011;66638;50.050;21.124;2023-03-25T04:27:44;9.20;;;7.30;;
77524;SDS011;66638;50.050;21.124;2023-03-25T04:30:33;9.70;;;6.10;;
77524;SDS011;66638;50.050;21.124;2023-03-25T04:33:18;12.10;;;6.70;;
77524;SDS011;66638;50.050;21.124;2023-03-25T04:36:05;10.40;;;8.20;;
77524;SDS011;66638;50.050;21.124;2023-03-25T04:38:51;10.20;;;7.60;;
77524;SDS011;66638;50.050;21.124;2023-03-25T04:41:38;11.20;;;7.60;;
77524;SDS011;66638;50.050;21.124;2023-03-25T04:44:23;10.40;;;7.50;;
77524;SDS011;66638;50.050;21.124;2023-03-25T04:47:11;10.80;;;8.30;;
77524;SDS011;66638;50.050;21.124;2023-03-25T04:49:59;11.00;;;7.40;;
77524;SDS011;66638;50.050;21.124;2023-03-25T04:52:46;13.40;;;8.70;;
77524;SDS011;66638;50.050;21.124;2023-03-25T04:55:33;10.20;;;7.30;;
77524;SDS011;66638;50.050;21.124;2023-03-25T04:58:21;10.50;;;7.30;;
77524;SDS011;66638;50.050;21.124;2023-03-25T05:01:07;10.80;;;8.40;;
77524;SDS011;66638;50.050;21.124;2023-03-25T05:04:03;13.10;;;7.40;;
77524;SDS011;66638;50.050;21.124;2023-03-25T05:06:49;11.30;;;7.60;;
77524;SDS011;66638;50.050;21.124;2023-03-25T05:09:36;12.20;;;8.70;;
77524;SDS011;66638;50.050;21.124;2023-03-25T05:12:21;12.50;;;8.80;;
77524;SDS011;66638;50.050;21.124;2023-03-25T05:15:08;12.90;;;9.70;;
77524;SDS011;66638;50.050;21.124;2023-03-25T05:17:55;13.60;;;8.60;;
77524;SDS011;66638;50.050;21.124;2023-03-25T05:20:42;12.90;;;8.60;;
77524;SDS011;66638;50.050;21.124;2023-03-25T05:23:31;13.60;;;9.00;;
77524;SDS011;66638;50.050;21.124;2023-03-25T05:26:17;16.60;;;9.80;;
77524;SDS011;66638;50.050;21.124;2023-03-25T05:29:04;16.10;;;10.10;;
77524;SDS011;66638;50.050;21.124;2023-03-25T05:31:52;14.30;;;9.60;;
77524;SDS011;66638;50.050;21.124;2023-03-25T05:34:38;15.70;;;10.80;;
77524;SDS011;66638;50.050;21.124;2023-03-25T05:37:24;13.80;;;9.50;;
77524;SDS011;66638;50.050;21.124;2023-03-25T05:40:11;15.50;;;9.90;;
77524;SDS011;66638;50.050;21.124;2023-03-25T05:42:57;14.40;;;9.40;;
77524;SDS011;66638;50.050;21.124;2023-03-25T05:45:44;18.40;;;11.70;;
77524;SDS011;66638;50.050;21.124;2023-03-25T05:48:31;15.30;;;10.80;;
77524;SDS011;66638;50.050;21.124;2023-03-25T05:51:17;15.30;;;10.40;;
77524;SDS011;66638;50.050;21.124;2023-03-25T05:54:10;18.60;;;11.30;;
77524;SDS011;66638;50.050;21.124;2023-03-25T05:56:55;15.70;;;10.10;;
77524;SDS011;66638;50.050;21.124;2023-03-25T05:59:41;15.40;;;10.80;;
77524;SDS011;66638;50.050;21.124;2023-03-25T06:02:27;15.60;;;10.50;;
77524;SDS011;66638;50.050;21.124;2023-03-25T06:05:14;19.00;;;10.90;;
77524;SDS011;66638;50.050;21.124;2023-03-25T06:08:01;14.50;;;10.00;;
77524;SDS011;66638;50.050;21.124;2023-03-25T06:10:48;15.80;;;9.80;;
77524;SDS011;66638;50.050;21.124;2023-03-25T06:13:34;14.40;;;9.80;;
77524;SDS011;66638;50.050;21.124;2023-03-25T06:16:23;16.80;;;9.60;;
77524;SDS011;66638;50.050;21.124;2023-03-25T06:19:14;13.90;;;9.50;;
77524;SDS011;66638;50.050;21.124;2023-03-25T06:22:04;12.90;;;8.50;;
77524;SDS011;66638;50.050;21.124;2023-03-25T06:24:53;13.70;;;9.10;;
77524;SDS011;66638;50.050;21.124;2023-03-25T06:27:39;12.10;;;8.70;;
77524;SDS011;66638;50.050;21.124;2023-03-25T06:30:25;14.20;;;9.10;;
77524;SDS011;66638;50.050;21.124;2023-03-25T06:33:11;12.40;;;8.10;;
77524;SDS011;66638;50.050;21.124;2023-03-25T06:35:58;11.60;;;8.40;;
77524;SDS011;66638;50.050;21.124;2023-03-25T06:38:44;14.40;;;8.50;;
77524;SDS011;66638;50.050;21.124;2023-03-25T06:41:34;11.30;;;7.70;;
77524;SDS011;66638;50.050;21.124;2023-03-25T06:44:30;13.00;;;8.20;;
77524;SDS011;66638;50.050;21.124;2023-03-25T06:47:36;11.30;;;7.90;;
77524;SDS011;66638;50.050;21.124;2023-03-25T06:50:23;10.80;;;7.50;;
77524;SDS011;66638;50.050;21.124;2023-03-25T06:53:09;13.40;;;7.50;;
77524;SDS011;66638;50.050;21.124;2023-03-25T06:55:56;10.60;;;7.60;;
77524;SDS011;66638;50.050;21.124;2023-03-25T06:58:43;12.40;;;7.10;;
77524;SDS011;66638;50.050;21.124;2023-03-25T07:01:28;11.50;;;8.50;;
77524;SDS011;66638;50.050;21.124;2023-03-25T07:04:14;11.00;;;6.70;;
77524;SDS011;66638;50.050;21.124;2023-03-25T07:07:00;8.90;;;6.40;;
77524;SDS011;66638;50.050;21.124;2023-03-25T07:09:49;8.00;;;5.70;;
77524;SDS011;66638;50.050;21.124;2023-03-25T07:12:36;8.30;;;5.40;;
77524;SDS011;66638;50.050;21.124;2023-03-25T07:15:22;9.10;;;5.20;;
77524;SDS011;66638;50.050;21.124;2023-03-25T07:18:09;8.60;;;5.20;;
77524;SDS011;66638;50.050;21.124;2023-03-25T07:20:55;7.80;;;5.00;;
77524;SDS011;66638;50.050;21.124;2023-03-25T07:23:41;8.60;;;5.10;;
77524;SDS011;66638;50.050;21.124;2023-03-25T07:26:26;7.80;;;5.10;;
77524;SDS011;66638;50.050;21.124;2023-03-25T07:29:12;8.40;;;5.10;;
77524;SDS011;66638;50.050;21.124;2023-03-25T07:31:59;9.80;;;5.90;;
77524;SDS011;66638;50.050;21.124;2023-03-25T07:34:45;12.20;;;6.90;;
77524;SDS011;66638;50.050;21.124;2023-03-25T07:37:31;7.80;;;5.40;;
77524;SDS011;66638;50.050;21.124;2023-03-25T07:40:17;9.00;;;5.40;;
77524;SDS011;66638;50.050;21.124;2023-03-25T07:43:04;7.50;;;5.00;;
77524;SDS011;66638;50.050;21.124;2023-03-25T07:46:00;7.40;;;5.00;;
77524;SDS011;66638;50.050;21.124;2023-03-25T07:48:48;9.80;;;6.60;;
77524;SDS011;66638;50.050;21.124;2023-03-25T07:51:35;10.20;;;6.00;;
77524;SDS011;66638;50.050;21.124;2023-03-25T07:54:20;8.00;;;5.60;;
77524;SDS011;66638;50.050;21.124;2023-03-25T07:57:08;9.00;;;5.90;;
77524;SDS011;66638;50.050;21.124;2023-03-25T07:59:54;7.60;;;5.20;;
77524;SDS011;66638;50.050;21.124;2023-03-25T08:02:40;6.80;;;4.40;;
77524;SDS011;66638;50.050;21.124;2023-03-25T08:05:26;8.30;;;5.60;;
77524;SDS011;66638;50.050;21.124;2023-03-25T08:08:13;9.90;;;5.60;;
77524;SDS011;66638;50.050;21.124;2023-03-25T08:10:59;13.60;;;6.50;;
77524;SDS011;66638;50.050;21.124;2023-03-25T08:13:46;11.30;;;7.40;;
77524;SDS011;66638;50.050;21.124;2023-03-25T08:16:32;11.50;;;7.70;;
77524;SDS011;66638;50.050;21.124;2023-03-25T08:19:18;11.90;;;8.10;;
77524;SDS011;66638;50.050;21.124;2023-03-25T08:22:04;13.50;;;7.60;;
77524;SDS011;66638;50.050;21.124;2023-03-25T08:24:50;10.70;;;5.70;;
77524;SDS011;66638;50.050;21.124;2023-03-25T08:27:37;11.90;;;6.40;;
77524;SDS011;66638;50.050;21.124;2023-03-25T08:30:25;10.80;;;5.10;;
77524;SDS011;66638;50.050;21.124;2023-03-25T08:33:12;10.10;;;6.40;;
77524;SDS011;66638;50.050;21.124;2023-03-25T08:35:59;11.20;;;6.50;;
77524;SDS011;66638;50.050;21.124;2023-03-25T08:38:45;8.60;;;5.70;;
77524;SDS011;66638;50.050;21.124;2023-03-25T08:41:32;8.50;;;5.50;;
77524;SDS011;66638;50.050;21.124;2023-03-25T08:44:18;9.40;;;5.30;;
77524;SDS011;66638;50.050;21.124;2023-03-25T08:47:04;7.70;;;5.40;;
77524;SDS011;66638;50.050;21.124;2023-03-25T08:49:50;8.00;;;4.60;;
77524;SDS011;66638;50.050;21.124;2023-03-25T08:52:36;7.60;;;4.20;;
77524;SDS011;66638;50.050;21.124;2023-03-25T08:55:37;6.90;;;4.50;;
77524;SDS011;66638;50.050;21.124;2023-03-25T08:58:23;10.90;;;5.40;;
77524;SDS011;66638;50.050;21.124;2023-03-25T09:03:56;9.40;;;5.10;;
77524;SDS011;66638;50.050;21.124;2023-03-25T09:06:42;8.50;;;4.60;;
77524;SDS011;66638;50.050;21.124;2023-03-25T09:09:29;10.10;;;4.40;;
77524;SDS011;66638;50.050;21.124;2023-03-25T09:12:14;7.60;;;4.20;;
77524;SDS011;66638;50.050;21.124;2023-03-25T09:15:00;7.30;;;4.40;;
77524;SDS011;66638;50.050;21.124;2023-03-25T09:17:46;6.90;;;4.10;;
77524;SDS011;66638;50.050;21.124;2023-03-25T09:20:33;8.00;;;4.50;;
77524;SDS011;66638;50.050;21.124;2023-03-25T09:23:19;8.20;;;4.30;;
77524;SDS011;66638;50.050;21.124;2023-03-25T09:26:05;8.30;;;4.50;;
77524;SDS011;66638;50.050;21.124;2023-03-25T09:28:51;7.30;;;4.90;;
77524;SDS011;66638;50.050;21.124;2023-03-25T09:31:40;10.20;;;5.00;;
77524;SDS011;66638;50.050;21.124;2023-03-25T09:34:26;9.20;;;4.50;;
77524;SDS011;66638;50.050;21.124;2023-03-25T09:37:12;7.40;;;4.30;;
77524;SDS011;66638;50.050;21.124;2023-03-25T09:39:58;8.70;;;4.20;;
77524;SDS011;66638;50.050;21.124;2023-03-25T09:42:59;9.10;;;4.80;;
77524;SDS011;66638;50.050;21.124;2023-03-25T09:45:53;7.60;;;4.80;;
77524;SDS011;66638;50.050;21.124;2023-03-25T09:48:43;8.40;;;5.50;;
77524;SDS011;66638;50.050;21.124;2023-03-25T09:51:34;9.60;;;5.80;;
77524;SDS011;66638;50.050;21.124;2023-03-25T09:54:22;10.10;;;5.70;;
77524;SDS011;66638;50.050;21.124;2023-03-25T09:57:11;10.40;;;6.00;;
77524;SDS011;66638;50.050;21.124;2023-03-25T10:00:09;9.90;;;5.10;;
77524;SDS011;66638;50.050;21.124;2023-03-25T10:03:13;8.40;;;4.90;;
77524;SDS011;66638;50.050;21.124;2023-03-25T10:06:11;10.00;;;5.50;;
77524;SDS011;66638;50.050;21.124;2023-03-25T10:09:15;11.20;;;7.70;;
77524;SDS011;66638;50.050;21.124;2023-03-25T10:12:30;8.90;;;5.00;;
77524;SDS011;66638;50.050;21.124;2023-03-25T10:15:24;9.00;;;5.60;;
77524;SDS011;66638;50.050;21.124;2023-03-25T10:24:53;8.30;;;5.10;;
77524;SDS011;66638;50.050;21.124;2023-03-25T10:27:45;9.00;;;4.30;;
77524;SDS011;66638;50.050;21.124;2023-03-25T10:30:37;7.50;;;4.20;;
77524;SDS011;66638;50.050;21.124;2023-03-25T10:33:37;6.70;;;4.00;;
77524;SDS011;66638;50.050;21.124;2023-03-25T10:36:33;8.20;;;4.10;;
77524;SDS011;66638;50.050;21.124;2023-03-25T10:39:23;6.80;;;3.90;;
77524;SDS011;66638;50.050;21.124;2023-03-25T10:45:25;7.40;;;4.30;;
77524;SDS011;66638;50.050;21.124;2023-03-25T10:48:12;6.40;;;3.70;;
77524;SDS011;66638;50.050;21.124;2023-03-25T10:51:19;7.40;;;3.90;;
77524;SDS011;66638;50.050;21.124;2023-03-25T10:54:10;8.70;;;4.20;;
77524;SDS011;66638;50.050;21.124;2023-03-25T10:56:57;7.40;;;3.70;;
77524;SDS011;66638;50.050;21.124;2023-03-25T11:03:03;7.00;;;3.70;;
77524;SDS011;66638;50.050;21.124;2023-03-25T11:05:51;6.60;;;3.40;;
77524;SDS011;66638;50.050;21.124;2023-03-25T11:08:54;7.10;;;4.10;;
77524;SDS011;66638;50.050;21.124;2023-03-25T11:12:00;6.50;;;3.60;;
77524;SDS011;66638;50.050;21.124;2023-03-25T11:14:54;7.30;;;3.90;;
77524;SDS011;66638;50.050;21.124;2023-03-25T11:17:45;8.10;;;3.50;;
77524;SDS011;66638;50.050;21.124;2023-03-25T11:20:39;7.20;;;3.50;;
77524;SDS011;66638;50.050;21.124;2023-03-25T11:23:35;6.90;;;4.00;;
77524;SDS011;66638;50.050;21.124;2023-03-25T11:26:23;7.30;;;4.10;;
77524;SDS011;66638;50.050;21.124;2023-03-25T11:29:12;6.00;;;3.90;;
77524;SDS011;66638;50.050;21.124;2023-03-25T11:32:04;6.80;;;4.40;;
77524;SDS011;66638;50.050;21.124;2023-03-25T11:34:52;7.80;;;4.10;;
77524;SDS011;66638;50.050;21.124;2023-03-25T11:37:42;7.20;;;3.90;;
77524;SDS011;66638;50.050;21.124;2023-03-25T11:40:31;7.00;;;3.80;;
77524;SDS011;66638;50.050;21.124;2023-03-25T11:43:20;7.70;;;4.10;;
77524;SDS011;66638;50.050;21.124;2023-03-25T11:46:09;6.50;;;3.80;;
77524;SDS011;66638;50.050;21.124;2023-03-25T11:48:57;6.30;;;3.90;;
77524;SDS011;66638;50.050;21.124;2023-03-25T11:51:56;6.30;;;3.60;;
77524;SDS011;66638;50.050;21.124;2023-03-25T11:54:47;8.90;;;3.70;;
77524;SDS011;66638;50.050;21.124;2023-03-25T11:57:36;7.50;;;4.10;;
77524;SDS011;66638;50.050;21.124;2023-03-25T12:00:32;8.40;;;3.90;;
77524;SDS011;66638;50.050;21.124;2023-03-25T12:03:25;8.70;;;3.50;;
77524;SDS011;66638;50.050;21.124;2023-03-25T12:06:15;6.50;;;3.90;;
77524;SDS011;66638;50.050;21.124;2023-03-25T12:09:06;5.10;;;3.40;;
77524;SDS011;66638;50.050;21.124;2023-03-25T12:15:27;6.00;;;3.40;;
77524;SDS011;66638;50.050;21.124;2023-03-25T12:18:43;6.40;;;3.70;;
77524;SDS011;66638;50.050;21.124;2023-03-25T12:31:51;7.20;;;3.90;;
77524;SDS011;66638;50.050;21.124;2023-03-25T12:34:56;6.00;;;3.50;;
77524;SDS011;66638;50.050;21.124;2023-03-25T12:38:13;7.80;;;4.50;;
77524;SDS011;66638;50.050;21.124;2023-03-25T12:41:31;5.30;;;3.80;;
77524;SDS011;66638;50.050;21.124;2023-03-25T12:44:30;7.30;;;4.40;;
77524;SDS011;66638;50.050;21.124;2023-03-25T12:47:38;6.30;;;4.10;;
77524;SDS011;66638;50.050;21.124;2023-03-25T12:50:29;6.10;;;4.50;;
77524;SDS011;66638;50.050;21.124;2023-03-25T12:56:58;8.30;;;4.50;;
77524;SDS011;66638;50.050;21.124;2023-03-25T13:00:14;5.80;;;4.20;;
77524;SDS011;66638;50.050;21.124;2023-03-25T13:03:31;21.00;;;12.10;;
77524;SDS011;66638;50.050;21.124;2023-03-25T13:13:10;8.80;;;5.40;;
77524;SDS011;66638;50.050;21.124;2023-03-25T13:16:02;7.70;;;4.30;;
77524;SDS011;66638;50.050;21.124;2023-03-25T13:18:56;8.70;;;4.70;;
77524;SDS011;66638;50.050;21.124;2023-03-25T13:21:56;8.50;;;4.90;;
77524;SDS011;66638;50.050;21.124;2023-03-25T13:24:50;9.80;;;5.20;;
77524;SDS011;66638;50.050;21.124;2023-03-25T13:27:39;6.50;;;4.60;;
77524;SDS011;66638;50.050;21.124;2023-03-25T13:30:31;7.20;;;4.90;;
77524;SDS011;66638;50.050;21.124;2023-03-25T13:33:27;7.90;;;5.50;;
77524;SDS011;66638;50.050;21.124;2023-03-25T13:36:18;7.70;;;4.90;;
77524;SDS011;66638;50.050;21.124;2023-03-25T13:39:19;8.60;;;5.30;;
77524;SDS011;66638;50.050;21.124;2023-03-25T13:42:11;7.50;;;5.30;;
77524;SDS011;66638;50.050;21.124;2023-03-25T13:45:01;7.40;;;4.80;;
77524;SDS011;66638;50.050;21.124;2023-03-25T13:47:51;7.20;;;3.80;;
77524;SDS011;66638;50.050;21.124;2023-03-25T13:50:42;5.20;;;3.00;;
77524;SDS011;66638;50.050;21.124;2023-03-25T13:53:31;5.40;;;2.40;;
77524;SDS011;66638;50.050;21.124;2023-03-25T13:59:52;4.70;;;2.70;;
77524;SDS011;66638;50.050;21.124;2023-03-25T14:03:08;3.90;;;2.50;;
77524;SDS011;66638;50.050;21.124;2023-03-25T14:06:24;4.60;;;2.60;;
77524;SDS011;66638;50.050;21.124;2023-03-25T14:09:27;4.80;;;2.70;;
77524;SDS011;66638;50.050;21.124;2023-03-25T14:15:58;4.60;;;2.10;;
77524;SDS011;66638;50.050;21.124;2023-03-25T14:18:57;3.30;;;1.80;;
77524;SDS011;66638;50.050;21.124;2023-03-25T14:21:47;3.70;;;2.40;;
77524;SDS011;66638;50.050;21.124;2023-03-25T14:24:34;3.10;;;1.70;;
77524;SDS011;66638;50.050;21.124;2023-03-25T14:27:24;5.30;;;1.90;;
77524;SDS011;66638;50.050;21.124;2023-03-25T14:33:16;5.30;;;2.00;;
77524;SDS011;66638;50.050;21.124;2023-03-25T14:36:03;4.50;;;2.50;;
77524;SDS011;66638;50.050;21.124;2023-03-25T14:38:52;4.90;;;2.50;;
77524;SDS011;66638;50.050;21.124;2023-03-25T14:44:46;7.10;;;2.20;;
77524;SDS011;66638;50.050;21.124;2023-03-25T14:47:42;5.80;;;2.80;;
77524;SDS011;66638;50.050;21.124;2023-03-25T14:50:36;6.90;;;4.60;;
77524;SDS011;66638;50.050;21.124;2023-03-25T14:53:22;4.70;;;3.00;;
77524;SDS011;66638;50.050;21.124;2023-03-25T14:56:11;6.70;;;3.80;;
77524;SDS011;66638;50.050;21.124;2023-03-25T14:59:06;7.90;;;5.20;;
77524;SDS011;66638;50.050;21.124;2023-03-25T15:01:58;6.10;;;4.90;;
77524;SDS011;66638;50.050;21.124;2023-03-25T15:04:54;6.70;;;3.00;;
77524;SDS011;66638;50.050;21.124;2023-03-25T15:07:44;4.70;;;2.90;;
77524;SDS011;66638;50.050;21.124;2023-03-25T15:10:33;6.10;;;3.10;;
77524;SDS011;66638;50.050;21.124;2023-03-25T15:13:25;3.80;;;2.80;;
77524;SDS011;66638;50.050;21.124;2023-03-25T15:19:21;2.60;;;1.40;;
77524;SDS011;66638;50.050;21.124;2023-03-25T15:22:16;6.80;;;1.80;;
77524;SDS011;66638;50.050;21.124;2023-03-25T15:25:15;4.00;;;2.00;;
77524;SDS011;66638;50.050;21.124;2023-03-25T15:28:10;3.90;;;1.80;;
77524;SDS011;66638;50.050;21.124;2023-03-25T15:31:04;7.00;;;2.10;;
77524;SDS011;66638;50.050;21.124;2023-03-25T15:34:20;4.00;;;1.90;;
77524;SDS011;66638;50.050;21.124;2023-03-25T15:40:47;6.40;;;2.70;;
77524;SDS011;66638;50.050;21.124;2023-03-25T15:50:37;4.00;;;2.20;;
77524;SDS011;66638;50.050;21.124;2023-03-25T15:53:39;4.40;;;3.40;;
77524;SDS011;66638;50.050;21.124;2023-03-25T15:59:43;3.70;;;2.00;;
77524;SDS011;66638;50.050;21.124;2023-03-25T16:02:32;4.00;;;2.20;;
77524;SDS011;66638;50.050;21.124;2023-03-25T16:05:22;5.10;;;2.70;;
77524;SDS011;66638;50.050;21.124;2023-03-25T16:08:16;4.40;;;2.80;;
77524;SDS011;66638;50.050;21.124;2023-03-25T16:14:14;5.50;;;3.10;;
77524;SDS011;66638;50.050;21.124;2023-03-25T16:17:03;15.60;;;14.00;;
77524;SDS011;66638;50.050;21.124;2023-03-25T16:19:53;7.90;;;5.10;;
77524;SDS011;66638;50.050;21.124;2023-03-25T16:22:40;14.30;;;10.80;;
77524;SDS011;66638;50.050;21.124;2023-03-25T16:25:33;11.20;;;4.70;;
77524;SDS011;66638;50.050;21.124;2023-03-25T16:28:25;31.80;;;22.80;;
77524;SDS011;66638;50.050;21.124;2023-03-25T16:31:26;9.50;;;5.50;;
77524;SDS011;66638;50.050;21.124;2023-03-25T16:34:26;12.70;;;7.00;;
77524;SDS011;66638;50.050;21.124;2023-03-25T16:37:14;10.60;;;5.10;;
77524;SDS011;66638;50.050;21.124;2023-03-25T16:40:04;9.80;;;4.40;;
77524;SDS011;66638;50.050;21.124;2023-03-25T16:42:51;96.70;;;60.40;;
77524;SDS011;66638;50.050;21.124;2023-03-25T16:45:38;35.60;;;17.80;;
77524;SDS011;66638;50.050;21.124;2023-03-25T16:48:26;37.70;;;20.80;;
77524;SDS011;66638;50.050;21.124;2023-03-25T16:54:33;30.40;;;20.00;;
77524;SDS011;66638;50.050;21.124;2023-03-25T16:57:26;59.10;;;28.70;;
77524;SDS011;66638;50.050;21.124;2023-03-25T17:00:16;22.10;;;16.70;;
77524;SDS011;66638;50.050;21.124;2023-03-25T17:03:04;19.10;;;9.20;;
77524;SDS011;66638;50.050;21.124;2023-03-25T17:05:51;11.20;;;7.00;;
77524;SDS011;66638;50.050;21.124;2023-03-25T17:08:41;32.70;;;20.40;;
77524;SDS011;66638;50.050;21.124;2023-03-25T17:11:28;56.30;;;33.00;;
77524;SDS011;66638;50.050;21.124;2023-03-25T17:14:17;55.90;;;31.40;;
77524;SDS011;66638;50.050;21.124;2023-03-25T17:17:08;41.80;;;22.70;;
77524;SDS011;66638;50.050;21.124;2023-03-25T17:20:16;58.30;;;32.30;;
77524;SDS011;66638;50.050;21.124;2023-03-25T17:23:17;31.80;;;24.00;;
77524;SDS011;66638;50.050;21.124;2023-03-25T17:26:12;9.60;;;5.40;;
77524;SDS011;66638;50.050;21.124;2023-03-25T17:29:00;14.90;;;9.50;;
77524;SDS011;66638;50.050;21.124;2023-03-25T17:31:55;15.80;;;9.70;;
77524;SDS011;66638;50.050;21.124;2023-03-25T17:34:43;14.80;;;8.40;;
77524;SDS011;66638;50.050;21.124;2023-03-25T17:37:31;97.10;;;32.80;;
77524;SDS011;66638;50.050;21.124;2023-03-25T17:40:24;84.10;;;29.60;;
77524;SDS011;66638;50.050;21.124;2023-03-25T17:43:16;75.70;;;30.80;;
77524;SDS011;66638;50.050;21.124;2023-03-25T17:46:04;28.70;;;14.10;;
77524;SDS011;66638;50.050;21.124;2023-03-25T17:48:50;25.90;;;11.40;;
77524;SDS011;66638;50.050;21.124;2023-03-25T17:51:38;31.50;;;18.40;;
77524;SDS011;66638;50.050;21.124;2023-03-25T17:54:25;18.70;;;12.70;;
77524;SDS011;66638;50.050;21.124;2023-03-25T17:57:12;37.70;;;19.70;;
77524;SDS011;66638;50.050;21.124;2023-03-25T18:00:03;56.50;;;34.50;;
77524;SDS011;66638;50.050;21.124;2023-03-25T18:02:56;73.90;;;43.50;;
77524;SDS011;66638;50.050;21.124;2023-03-25T18:05:42;59.50;;;36.90;;
77524;SDS011;66638;50.050;21.124;2023-03-25T18:08:29;45.90;;;25.70;;
77524;SDS011;66638;50.050;21.124;2023-03-25T18:11:15;59.50;;;32.40;;
77524;SDS011;66638;50.050;21.124;2023-03-25T18:14:03;52.00;;;29.60;;
77524;SDS011;66638;50.050;21.124;2023-03-25T18:16:52;53.10;;;27.30;;
77524;SDS011;66638;50.050;21.124;2023-03-25T18:19:38;56.10;;;30.30;;
77524;SDS011;66638;50.050;21.124;2023-03-25T18:22:25;40.70;;;20.30;;
77524;SDS011;66638;50.050;21.124;2023-03-25T18:25:11;25.10;;;14.70;;
77524;SDS011;66638;50.050;21.124;2023-03-25T18:27:58;15.90;;;8.60;;
77524;SDS011;66638;50.050;21.124;2023-03-25T18:30:45;22.20;;;12.00;;